sensor_id;sensor_type;location;lat;lon;timestamp;pressure;altitude;pressure_sealevel;temperature;humidity
55066;BME280;40964;42.114;24.220;2022-07-23T00:01:30;97971.44;;;22.70;50.90
55066;BME280;40964;42.114;24.220;2022-07-23T00:03:56;97968.63;;;22.61;50.89
55066;BME280;40964;42.114;24.220;2022-07-23T00:06:23;97967.84;;;22.61;51.60
55066;BME280;40964;42.114;24.220;2022-07-23T00:08:49;97966.28;;;22.55;50.96
55066;BME280;40964;42.114;24.220;2022-07-23T00:11:15;97962.13;;;22.49;52.30
55066;BME280;40964;42.114;24.220;2022-07-23T00:13:41;97966.97;;;22.47;51.59
55066;BME280;40964;42.114;24.220;2022-07-23T00:16:07;97971.09;;;22.39;51.41
55066;BME280;40964;42.114;24.220;2022-07-23T00:18:33;97960.78;;;22.27;51.97
55066;BME280;40964;42.114;24.220;2022-07-23T00:20:58;97967.47;;;22.30;51.99
55066;BME280;40964;42.114;24.220;2022-07-23T00:23:24;97961.56;;;22.28;51.44
55066;BME280;40964;42.114;24.220;2022-07-23T00:25:51;97966.50;;;22.21;51.89
55066;BME280;40964;42.114;24.220;2022-07-23T00:28:17;97964.47;;;22.13;51.69
55066;BME280;40964;42.114;24.220;2022-07-23T00:30:44;97967.47;;;22.06;51.66
55066;BME280;40964;42.114;24.220;2022-07-23T00:33:10;97957.03;;;22.04;51.99
55066;BME280;40964;42.114;24.220;2022-07-23T00:35:37;97955.50;;;21.98;51.90
55066;BME280;40964;42.114;24.220;2022-07-23T00:38:07;97965.13;;;21.99;52.46
55066;BME280;40964;42.114;24.220;2022-07-23T00:40:33;97966.50;;;21.97;52.43
55066;BME280;40964;42.114;24.220;2022-07-23T00:42:59;97960.06;;;21.98;52.33
55066;BME280;40964;42.114;24.220;2022-07-23T00:45:26;97957.06;;;21.99;51.85
55066;BME280;40964;42.114;24.220;2022-07-23T00:47:52;97956.00;;;22.00;52.15
55066;BME280;40964;42.114;24.220;2022-07-23T00:50:17;97950.38;;;22.02;51.51
55066;BME280;40964;42.114;24.220;2022-07-23T00:52:43;97946.88;;;22.01;51.47
55066;BME280;40964;42.114;24.220;2022-07-23T00:55:10;97952.22;;;22.01;50.98
55066;BME280;40964;42.114;24.220;2022-07-23T00:57:38;97951.69;;;22.04;50.83
55066;BME280;40964;42.114;24.220;2022-07-23T01:00:06;97943.81;;;21.89;51.89
55066;BME280;40964;42.114;24.220;2022-07-23T01:02:32;97954.22;;;21.91;51.60
55066;BME280;40964;42.114;24.220;2022-07-23T01:04:58;97959.66;;;21.86;51.70
55066;BME280;40964;42.114;24.220;2022-07-23T01:07:24;97959.66;;;21.86;51.76
55066;BME280;40964;42.114;24.220;2022-07-23T01:09:51;97970.41;;;21.80;52.75
55066;BME280;40964;42.114;24.220;2022-07-23T01:12:17;97969.03;;;21.83;52.27
55066;BME280;40964;42.114;24.220;2022-07-23T01:14:42;97972.31;;;21.80;51.81
55066;BME280;40964;42.114;24.220;2022-07-23T01:17:08;97960.50;;;21.81;51.94
55066;BME280;40964;42.114;24.220;2022-07-23T01:19:33;97963.50;;;21.74;52.68
55066;BME280;40964;42.114;24.220;2022-07-23T01:22:02;97958.44;;;21.73;52.50
55066;BME280;40964;42.114;24.220;2022-07-23T01:24:28;97960.34;;;21.72;52.28
55066;BME280;40964;42.114;24.220;2022-07-23T01:26:53;97951.50;;;21.72;52.58
55066;BME280;40964;42.114;24.220;2022-07-23T01:29:19;97951.00;;;21.70;53.32
55066;BME280;40964;42.114;24.220;2022-07-23T01:31:46;97949.63;;;21.72;53.16
55066;BME280;40964;42.114;24.220;2022-07-23T01:34:12;97951.75;;;21.75;52.81
55066;BME280;40964;42.114;24.220;2022-07-23T01:36:38;97951.22;;;21.73;53.35
55066;BME280;40964;42.114;24.220;2022-07-23T01:39:05;97948.81;;;21.72;53.16
55066;BME280;40964;42.114;24.220;2022-07-23T01:41:31;97944.28;;;21.72;53.04
55066;BME280;40964;42.114;24.220;2022-07-23T01:43:56;97942.63;;;21.76;53.11
55066;BME280;40964;42.114;24.220;2022-07-23T01:46:22;97940.75;;;21.77;53.09
55066;BME280;40964;42.114;24.220;2022-07-23T01:48:48;97942.63;;;21.76;52.63
55066;BME280;40964;42.114;24.220;2022-07-23T01:51:14;97945.31;;;21.76;52.11
55066;BME280;40964;42.114;24.220;2022-07-23T01:53:39;97943.97;;;21.74;51.81
55066;BME280;40964;42.114;24.220;2022-07-23T01:56:05;97940.59;;;21.68;51.76
55066;BME280;40964;42.114;24.220;2022-07-23T01:58:31;97939.03;;;21.62;52.32
55066;BME280;40964;42.114;24.220;2022-07-23T02:00:57;97943.88;;;21.60;52.75
55066;BME280;40964;42.114;24.220;2022-07-23T02:03:23;97941.59;;;21.48;53.52
55066;BME280;40964;42.114;24.220;2022-07-23T02:05:49;97941.34;;;21.45;53.48
55066;BME280;40964;42.114;24.220;2022-07-23T02:08:15;97947.78;;;21.44;53.36
55066;BME280;40964;42.114;24.220;2022-07-23T02:10:41;97946.78;;;21.40;53.22
55066;BME280;40964;42.114;24.220;2022-07-23T02:13:06;97951.56;;;21.38;52.95
55066;BME280;40964;42.114;24.220;2022-07-23T02:15:32;97959.34;;;21.39;53.00
55066;BME280;40964;42.114;24.220;2022-07-23T02:17:58;97957.19;;;21.41;53.00
55066;BME280;40964;42.114;24.220;2022-07-23T02:20:24;97957.72;;;21.38;53.09
55066;BME280;40964;42.114;24.220;2022-07-23T02:22:49;97948.16;;;21.32;53.43
55066;BME280;40964;42.114;24.220;2022-07-23T02:25:15;97955.59;;;21.40;54.21
55066;BME280;40964;42.114;24.220;2022-07-23T02:27:41;97958.31;;;21.35;54.13
55066;BME280;40964;42.114;24.220;2022-07-23T02:30:07;97955.34;;;21.37;53.86
55066;BME280;40964;42.114;24.220;2022-07-23T02:32:34;97951.13;;;21.31;54.52
55066;BME280;40964;42.114;24.220;2022-07-23T02:35:00;97952.72;;;21.32;54.41
55066;BME280;40964;42.114;24.220;2022-07-23T02:37:26;97955.13;;;21.33;53.82
55066;BME280;40964;42.114;24.220;2022-07-23T02:39:51;97956.41;;;21.36;54.13
55066;BME280;40964;42.114;24.220;2022-07-23T02:42:17;97951.34;;;21.34;54.98
55066;BME280;40964;42.114;24.220;2022-07-23T02:44:44;97953.81;;;21.31;54.50
55066;BME280;40964;42.114;24.220;2022-07-23T02:47:09;97963.47;;;21.27;55.06
55066;BME280;40964;42.114;24.220;2022-07-23T02:49:35;97961.59;;;21.27;55.16
55066;BME280;40964;42.114;24.220;2022-07-23T02:52:00;97957.38;;;21.16;55.40
55066;BME280;40964;42.114;24.220;2022-07-23T02:54:26;97959.28;;;21.10;55.09
55066;BME280;40964;42.114;24.220;2022-07-23T02:56:52;97963.34;;;21.03;55.33
55066;BME280;40964;42.114;24.220;2022-07-23T02:59:18;97968.19;;;21.01;55.83
55066;BME280;40964;42.114;24.220;2022-07-23T03:01:44;97968.25;;;20.95;56.83
55066;BME280;40964;42.114;24.220;2022-07-23T03:04:10;97967.47;;;20.90;57.46
55066;BME280;40964;42.114;24.220;2022-07-23T03:06:36;97968.84;;;20.87;57.69
55066;BME280;40964;42.114;24.220;2022-07-23T03:09:05;97966.19;;;20.82;57.86
55066;BME280;40964;42.114;24.220;2022-07-23T03:11:31;97962.97;;;20.85;57.36
55066;BME280;40964;42.114;24.220;2022-07-23T03:13:56;97956.84;;;20.80;57.63
55066;BME280;40964;42.114;24.220;2022-07-23T03:16:22;97959.75;;;20.83;58.09
55066;BME280;40964;42.114;24.220;2022-07-23T03:18:47;97962.13;;;20.90;56.97
55066;BME280;40964;42.114;24.220;2022-07-23T03:21:13;97963.72;;;20.91;57.07
55066;BME280;40964;42.114;24.220;2022-07-23T03:23:38;97972.50;;;20.96;56.74
55066;BME280;40964;42.114;24.220;2022-07-23T03:26:04;97965.00;;;20.98;56.70
55066;BME280;40964;42.114;24.220;2022-07-23T03:28:30;97977.28;;;21.00;57.09
55066;BME280;40964;42.114;24.220;2022-07-23T03:30:56;97974.09;;;20.97;57.20
55066;BME280;40964;42.114;24.220;2022-07-23T03:33:22;97968.75;;;20.97;56.25
55066;BME280;40964;42.114;24.220;2022-07-23T03:35:48;97974.03;;;21.08;55.39
55066;BME280;40964;42.114;24.220;2022-07-23T03:38:15;97968.09;;;21.11;56.10
55066;BME280;40964;42.114;24.220;2022-07-23T03:40:41;97967.31;;;21.10;55.89
55066;BME280;40964;42.114;24.220;2022-07-23T03:43:06;97969.16;;;21.15;55.76
55066;BME280;40964;42.114;24.220;2022-07-23T03:45:32;97975.53;;;21.19;55.63
55066;BME280;40964;42.114;24.220;2022-07-23T03:47:57;97983.53;;;21.24;56.14
55066;BME280;40964;42.114;24.220;2022-07-23T03:50:24;97979.47;;;21.32;56.93
55066;BME280;40964;42.114;24.220;2022-07-23T03:52:50;97973.78;;;21.38;55.89
55066;BME280;40964;42.114;24.220;2022-07-23T03:55:15;97973.47;;;21.45;56.72
55066;BME280;40964;42.114;24.220;2022-07-23T03:57:42;97976.59;;;21.52;57.12
55066;BME280;40964;42.114;24.220;2022-07-23T04:00:09;97977.38;;;21.58;60.20
55066;BME280;40964;42.114;24.220;2022-07-23T04:02:37;97977.81;;;21.65;58.83
55066;BME280;40964;42.114;24.220;2022-07-23T04:05:03;97987.91;;;21.73;58.24
55066;BME280;40964;42.114;24.220;2022-07-23T04:07:30;97984.09;;;21.79;59.37
55066;BME280;40964;42.114;24.220;2022-07-23T04:09:55;97978.88;;;21.93;57.13
55066;BME280;40964;42.114;24.220;2022-07-23T04:12:21;97985.44;;;22.00;56.58
55066;BME280;40964;42.114;24.220;2022-07-23T04:14:47;97985.59;;;22.14;56.84
55066;BME280;40964;42.114;24.220;2022-07-23T04:17:12;97981.00;;;22.20;59.56
55066;BME280;40964;42.114;24.220;2022-07-23T04:19:38;97987.06;;;22.25;60.06
55066;BME280;40964;42.114;24.220;2022-07-23T04:22:11;97977.59;;;22.33;59.49
55066;BME280;40964;42.114;24.220;2022-07-23T04:24:37;97978.25;;;22.44;59.03
55066;BME280;40964;42.114;24.220;2022-07-23T04:27:03;97978.34;;;22.57;58.42
55066;BME280;40964;42.114;24.220;2022-07-23T04:29:29;97987.84;;;22.69;57.68
55066;BME280;40964;42.114;24.220;2022-07-23T04:31:54;97987.69;;;22.79;57.76
55066;BME280;40964;42.114;24.220;2022-07-23T04:34:20;97989.25;;;22.85;58.43
55066;BME280;40964;42.114;24.220;2022-07-23T04:36:46;97993.06;;;22.98;56.72
55066;BME280;40964;42.114;24.220;2022-07-23T04:39:14;97978.50;;;23.04;54.50
55066;BME280;40964;42.114;24.220;2022-07-23T04:41:39;97995.22;;;23.14;54.43
55066;BME280;40964;42.114;24.220;2022-07-23T04:44:05;97989.97;;;23.23;53.79
55066;BME280;40964;42.114;24.220;2022-07-23T04:46:31;97993.28;;;23.34;55.18
55066;BME280;40964;42.114;24.220;2022-07-23T04:48:57;97979.28;;;23.37;54.98
55066;BME280;40964;42.114;24.220;2022-07-23T04:51:23;97987.06;;;23.52;54.21
55066;BME280;40964;42.114;24.220;2022-07-23T04:53:49;97986.50;;;23.55;54.95
55066;BME280;40964;42.114;24.220;2022-07-23T04:56:15;97993.72;;;23.73;53.73
55066;BME280;40964;42.114;24.220;2022-07-23T04:58:41;97991.31;;;23.86;51.95
55066;BME280;40964;42.114;24.220;2022-07-23T05:01:07;97984.94;;;23.95;53.13
55066;BME280;40964;42.114;24.220;2022-07-23T05:03:32;97987.13;;;24.07;52.80
55066;BME280;40964;42.114;24.220;2022-07-23T05:05:58;97983.44;;;24.17;52.94
55066;BME280;40964;42.114;24.220;2022-07-23T05:08:23;97980.16;;;24.33;52.11
55066;BME280;40964;42.114;24.220;2022-07-23T05:10:49;97967.13;;;24.41;52.84
55066;BME280;40964;42.114;24.220;2022-07-23T05:13:15;97981.69;;;24.62;51.65
55066;BME280;40964;42.114;24.220;2022-07-23T05:15:42;97974.28;;;24.81;53.39
55066;BME280;40964;42.114;24.220;2022-07-23T05:18:07;97980.59;;;24.99;50.66
55066;BME280;40964;42.114;24.220;2022-07-23T05:20:33;97969.66;;;25.18;48.44
55066;BME280;40964;42.114;24.220;2022-07-23T05:22:59;97974.09;;;25.45;48.24
55066;BME280;40964;42.114;24.220;2022-07-23T05:25:24;97974.38;;;25.66;46.92
55066;BME280;40964;42.114;24.220;2022-07-23T05:27:50;97973.84;;;25.86;46.18
55066;BME280;40964;42.114;24.220;2022-07-23T05:30:15;97981.50;;;26.01;46.11
55066;BME280;40964;42.114;24.220;2022-07-23T05:32:41;97977.44;;;26.21;45.93
55066;BME280;40964;42.114;24.220;2022-07-23T05:35:07;97976.69;;;26.38;44.28
55066;BME280;40964;42.114;24.220;2022-07-23T05:37:33;97977.06;;;26.63;44.87
55066;BME280;40964;42.114;24.220;2022-07-23T05:40:03;97980.69;;;26.84;44.30
55066;BME280;40964;42.114;24.220;2022-07-23T05:42:31;97974.50;;;26.92;43.72
55066;BME280;40964;42.114;24.220;2022-07-23T05:44:56;97970.69;;;27.02;43.93
55066;BME280;40964;42.114;24.220;2022-07-23T05:47:22;97961.31;;;27.25;44.43
55066;BME280;40964;42.114;24.220;2022-07-23T05:49:48;97973.72;;;27.26;43.03
55066;BME280;40964;42.114;24.220;2022-07-23T05:52:14;97969.38;;;27.51;43.08
55066;BME280;40964;42.114;24.220;2022-07-23T05:54:39;97973.63;;;27.69;42.16
55066;BME280;40964;42.114;24.220;2022-07-23T05:57:05;97978.63;;;27.88;41.23
55066;BME280;40964;42.114;24.220;2022-07-23T05:59:31;97982.34;;;28.13;41.00
55066;BME280;40964;42.114;24.220;2022-07-23T06:01:56;97979.63;;;28.13;41.96
55066;BME280;40964;42.114;24.220;2022-07-23T06:04:22;97992.53;;;28.08;42.58
55066;BME280;40964;42.114;24.220;2022-07-23T06:06:47;97992.28;;;27.92;41.84
55066;BME280;40964;42.114;24.220;2022-07-23T06:09:13;98000.66;;;28.08;41.17
55066;BME280;40964;42.114;24.220;2022-07-23T06:11:39;97995.94;;;27.96;42.29
55066;BME280;40964;42.114;24.220;2022-07-23T06:14:05;97994.91;;;28.09;41.52
55066;BME280;40964;42.114;24.220;2022-07-23T06:16:31;97990.06;;;28.32;42.49
55066;BME280;40964;42.114;24.220;2022-07-23T06:18:56;97996.72;;;28.55;40.95
55066;BME280;40964;42.114;24.220;2022-07-23T06:21:22;97999.13;;;28.78;40.67
55066;BME280;40964;42.114;24.220;2022-07-23T06:23:47;97996.00;;;29.09;39.03
55066;BME280;40964;42.114;24.220;2022-07-23T06:26:13;97991.59;;;29.37;39.24
55066;BME280;40964;42.114;24.220;2022-07-23T06:28:38;97977.00;;;29.63;37.90
55066;BME280;40964;42.114;24.220;2022-07-23T06:31:04;97976.94;;;29.84;38.35
55066;BME280;40964;42.114;24.220;2022-07-23T06:33:30;97975.22;;;29.91;37.65
55066;BME280;40964;42.114;24.220;2022-07-23T06:35:55;97984.13;;;29.80;37.47
55066;BME280;40964;42.114;24.220;2022-07-23T06:38:21;97977.22;;;29.82;37.81
55066;BME280;40964;42.114;24.220;2022-07-23T06:40:46;97976.59;;;30.22;38.46
55066;BME280;40964;42.114;24.220;2022-07-23T06:43:12;97982.00;;;30.34;35.92
55066;BME280;40964;42.114;24.220;2022-07-23T06:45:37;97973.56;;;30.64;34.79
55066;BME280;40964;42.114;24.220;2022-07-23T06:48:03;97971.41;;;30.82;34.32
55066;BME280;40964;42.114;24.220;2022-07-23T06:50:29;97971.56;;;31.01;33.83
55066;BME280;40964;42.114;24.220;2022-07-23T06:52:54;97977.53;;;31.06;33.72
55066;BME280;40964;42.114;24.220;2022-07-23T06:55:20;97969.91;;;31.40;31.64
55066;BME280;40964;42.114;24.220;2022-07-23T06:57:45;97977.41;;;31.75;32.64
55066;BME280;40964;42.114;24.220;2022-07-23T07:00:11;97970.25;;;31.82;33.10
55066;BME280;40964;42.114;24.220;2022-07-23T07:02:37;97971.75;;;32.15;33.95
55066;BME280;40964;42.114;24.220;2022-07-23T07:05:03;97977.22;;;32.31;32.81
55066;BME280;40964;42.114;24.220;2022-07-23T07:07:28;97966.69;;;32.13;31.76
55066;BME280;40964;42.114;24.220;2022-07-23T07:09:54;97971.41;;;32.32;32.39
55066;BME280;40964;42.114;24.220;2022-07-23T07:12:19;97965.78;;;32.60;31.42
55066;BME280;40964;42.114;24.220;2022-07-23T07:14:45;97961.94;;;32.81;33.22
55066;BME280;40964;42.114;24.220;2022-07-23T07:17:10;97960.16;;;32.88;31.74
55066;BME280;40964;42.114;24.220;2022-07-23T07:19:36;97958.44;;;33.19;31.61
55066;BME280;40964;42.114;24.220;2022-07-23T07:22:02;97960.75;;;33.40;31.49
55066;BME280;40964;42.114;24.220;2022-07-23T07:24:28;97956.47;;;33.39;31.78
55066;BME280;40964;42.114;24.220;2022-07-23T07:26:53;97945.88;;;33.56;31.79
55066;BME280;40964;42.114;24.220;2022-07-23T07:29:19;97943.13;;;33.79;31.55
55066;BME280;40964;42.114;24.220;2022-07-23T07:31:44;97949.88;;;34.12;31.12
55066;BME280;40964;42.114;24.220;2022-07-23T07:34:10;97941.25;;;34.36;30.04
55066;BME280;40964;42.114;24.220;2022-07-23T07:36:36;97947.78;;;34.28;29.90
55066;BME280;40964;42.114;24.220;2022-07-23T07:39:03;97942.22;;;34.21;29.56
55066;BME280;40964;42.114;24.220;2022-07-23T07:41:32;97947.63;;;34.44;31.66
55066;BME280;40964;42.114;24.220;2022-07-23T07:43:58;97941.69;;;34.68;28.46
55066;BME280;40964;42.114;24.220;2022-07-23T07:46:23;97929.31;;;34.78;31.20
55066;BME280;40964;42.114;24.220;2022-07-23T07:48:53;97941.34;;;35.04;28.13
55066;BME280;40964;42.114;24.220;2022-07-23T07:51:18;97937.66;;;35.26;29.43
55066;BME280;40964;42.114;24.220;2022-07-23T07:53:44;97932.19;;;35.26;29.08
55066;BME280;40964;42.114;24.220;2022-07-23T07:56:10;97929.28;;;35.49;29.06
55066;BME280;40964;42.114;24.220;2022-07-23T07:58:35;97930.22;;;35.64;26.90
55066;BME280;40964;42.114;24.220;2022-07-23T08:01:01;97932.38;;;35.88;26.79
55066;BME280;40964;42.114;24.220;2022-07-23T08:03:27;97930.78;;;35.87;27.35
55066;BME280;40964;42.114;24.220;2022-07-23T08:05:53;97925.13;;;36.14;26.54
55066;BME280;40964;42.114;24.220;2022-07-23T08:08:18;97928.72;;;36.28;27.00
55066;BME280;40964;42.114;24.220;2022-07-23T08:10:44;97922.78;;;36.16;25.96
55066;BME280;40964;42.114;24.220;2022-07-23T08:13:13;97918.81;;;36.09;26.88
55066;BME280;40964;42.114;24.220;2022-07-23T08:15:39;97921.13;;;36.00;26.41
55066;BME280;40964;42.114;24.220;2022-07-23T08:18:05;97916.56;;;36.26;26.38
55066;BME280;40964;42.114;24.220;2022-07-23T08:20:30;97909.72;;;36.60;25.66
55066;BME280;40964;42.114;24.220;2022-07-23T08:22:58;97905.88;;;36.79;27.11
55066;BME280;40964;42.114;24.220;2022-07-23T08:25:32;97908.13;;;36.56;26.74
55066;BME280;40964;42.114;24.220;2022-07-23T08:27:59;97907.44;;;36.80;25.46
55066;BME280;40964;42.114;24.220;2022-07-23T08:30:26;97903.59;;;36.96;25.07
55066;BME280;40964;42.114;24.220;2022-07-23T08:32:55;97901.16;;;36.80;25.25
55066;BME280;40964;42.114;24.220;2022-07-23T08:35:23;97900.06;;;36.95;27.17
55066;BME280;40964;42.114;24.220;2022-07-23T08:37:49;97904.81;;;37.27;25.33
55066;BME280;40964;42.114;24.220;2022-07-23T08:40:14;97903.22;;;37.26;25.17
55066;BME280;40964;42.114;24.220;2022-07-23T08:42:40;97902.44;;;37.14;23.68
55066;BME280;40964;42.114;24.220;2022-07-23T08:45:07;97902.44;;;37.25;24.55
55066;BME280;40964;42.114;24.220;2022-07-23T08:47:35;97903.28;;;37.58;23.54
55066;BME280;40964;42.114;24.220;2022-07-23T08:50:02;97895.81;;;37.97;24.05
55066;BME280;40964;42.114;24.220;2022-07-23T08:52:30;97884.34;;;38.34;23.54
55066;BME280;40964;42.114;24.220;2022-07-23T08:54:57;97895.59;;;38.65;22.16
55066;BME280;40964;42.114;24.220;2022-07-23T08:57:22;97892.38;;;38.84;22.24
55066;BME280;40964;42.114;24.220;2022-07-23T08:59:48;97887.72;;;38.71;21.04
55066;BME280;40964;42.114;24.220;2022-07-23T09:02:13;97892.94;;;38.44;22.30
55066;BME280;40964;42.114;24.220;2022-07-23T09:04:39;97894.16;;;38.39;20.34
55066;BME280;40964;42.114;24.220;2022-07-23T09:07:05;97885.41;;;38.55;19.76
55066;BME280;40964;42.114;24.220;2022-07-23T09:09:30;97899.09;;;38.73;21.42
55066;BME280;40964;42.114;24.220;2022-07-23T09:12:23;97895.28;;;38.49;20.32
55066;BME280;40964;42.114;24.220;2022-07-23T09:14:51;97892.06;;;38.61;21.23
55066;BME280;40964;42.114;24.220;2022-07-23T09:17:17;97885.13;;;38.35;19.79
55066;BME280;40964;42.114;24.220;2022-07-23T09:19:44;97884.66;;;38.51;19.87
55066;BME280;40964;42.114;24.220;2022-07-23T09:22:23;97890.47;;;38.71;20.08
55066;BME280;40964;42.114;24.220;2022-07-23T09:25:06;97886.34;;;38.20;20.10
55066;BME280;40964;42.114;24.220;2022-07-23T09:30:11;97884.78;;;38.01;19.65
55066;BME280;40964;42.114;24.220;2022-07-23T09:32:36;97874.66;;;37.84;20.12
55066;BME280;40964;42.114;24.220;2022-07-23T09:35:02;97880.91;;;38.02;19.64
55066;BME280;40964;42.114;24.220;2022-07-23T09:37:28;97876.22;;;37.85;19.24
55066;BME280;40964;42.114;24.220;2022-07-23T09:40:06;97874.63;;;37.94;19.63
55066;BME280;40964;42.114;24.220;2022-07-23T09:42:32;97867.13;;;38.05;18.90
55066;BME280;40964;42.114;24.220;2022-07-23T09:44:58;97863.19;;;38.14;19.57
55066;BME280;40964;42.114;24.220;2022-07-23T09:47:29;97862.06;;;38.04;17.55
55066;BME280;40964;42.114;24.220;2022-07-23T09:52:30;97865.00;;;38.59;19.52
55066;BME280;40964;42.114;24.220;2022-07-23T09:55:01;97865.72;;;38.74;17.90
55066;BME280;40964;42.114;24.220;2022-07-23T09:57:27;97866.41;;;38.93;17.64
55066;BME280;40964;42.114;24.220;2022-07-23T09:59:58;97859.47;;;39.29;17.47
55066;BME280;40964;42.114;24.220;2022-07-23T10:02:27;97866.19;;;39.73;17.68
55066;BME280;40964;42.114;24.220;2022-07-23T10:04:54;97857.72;;;39.94;16.33
55066;BME280;40964;42.114;24.220;2022-07-23T10:07:22;97862.34;;;40.05;16.13
55066;BME280;40964;42.114;24.220;2022-07-23T10:09:50;97855.28;;;40.04;16.49
55066;BME280;40964;42.114;24.220;2022-07-23T10:12:18;97856.63;;;39.85;16.07
55066;BME280;40964;42.114;24.220;2022-07-23T10:15:19;97851.25;;;40.12;16.63
55066;BME280;40964;42.114;24.220;2022-07-23T10:17:45;97849.38;;;40.36;17.32
55066;BME280;40964;42.114;24.220;2022-07-23T10:20:11;97852.16;;;40.36;15.24
55066;BME280;40964;42.114;24.220;2022-07-23T10:22:50;97851.66;;;40.41;15.32
55066;BME280;40964;42.114;24.220;2022-07-23T10:33:38;97836.81;;;40.00;15.91
55066;BME280;40964;42.114;24.220;2022-07-23T10:36:11;97841.69;;;39.41;15.24
55066;BME280;40964;42.114;24.220;2022-07-23T10:41:51;97830.34;;;39.77;15.51
55066;BME280;40964;42.114;24.220;2022-07-23T10:44:19;97822.38;;;39.86;15.13
55066;BME280;40964;42.114;24.220;2022-07-23T10:46:54;97823.22;;;40.17;15.29
55066;BME280;40964;42.114;24.220;2022-07-23T10:49:40;97818.59;;;40.44;14.93
55066;BME280;40964;42.114;24.220;2022-07-23T10:52:21;97816.03;;;40.57;15.01
55066;BME280;40964;42.114;24.220;2022-07-23T10:57:16;97804.81;;;40.71;15.65
55066;BME280;40964;42.114;24.220;2022-07-23T11:02:28;97799.81;;;40.90;17.71
55066;BME280;40964;42.114;24.220;2022-07-23T11:04:59;97793.25;;;41.30;16.84
55066;BME280;40964;42.114;24.220;2022-07-23T11:07:25;97796.81;;;41.74;17.70
55066;BME280;40964;42.114;24.220;2022-07-23T11:09:51;97789.81;;;41.89;16.86
55066;BME280;40964;42.114;24.220;2022-07-23T11:17:27;97769.47;;;42.00;14.46
55066;BME280;40964;42.114;24.220;2022-07-23T11:22:57;97773.16;;;42.13;14.46
55066;BME280;40964;42.114;24.220;2022-07-23T11:27:56;97774.47;;;42.05;16.45
55066;BME280;40964;42.114;24.220;2022-07-23T11:35:37;97773.69;;;41.45;13.99
55066;BME280;40964;42.114;24.220;2022-07-23T11:38:06;97769.97;;;41.31;15.33
55066;BME280;40964;42.114;24.220;2022-07-23T11:40:32;97768.63;;;41.39;16.24
55066;BME280;40964;42.114;24.220;2022-07-23T11:43:03;97757.38;;;41.50;14.52
55066;BME280;40964;42.114;24.220;2022-07-23T11:45:33;97755.06;;;41.68;16.77
55066;BME280;40964;42.114;24.220;2022-07-23T11:47:59;97745.59;;;41.89;16.49
55066;BME280;40964;42.114;24.220;2022-07-23T11:50:25;97745.63;;;42.06;17.21
55066;BME280;40964;42.114;24.220;2022-07-23T11:52:52;97743.13;;;42.31;14.71
55066;BME280;40964;42.114;24.220;2022-07-23T11:55:19;97735.41;;;42.42;15.70
55066;BME280;40964;42.114;24.220;2022-07-23T11:57:44;97735.47;;;42.39;14.11
55066;BME280;40964;42.114;24.220;2022-07-23T12:00:19;97743.22;;;42.64;14.72
55066;BME280;40964;42.114;24.220;2022-07-23T12:02:47;97739.66;;;42.63;15.05
55066;BME280;40964;42.114;24.220;2022-07-23T12:05:25;97729.88;;;42.42;13.96
55066;BME280;40964;42.114;24.220;2022-07-23T12:07:53;97728.78;;;42.00;13.54
55066;BME280;40964;42.114;24.220;2022-07-23T12:12:50;97731.94;;;41.82;13.73
55066;BME280;40964;42.114;24.220;2022-07-23T12:15:19;97718.69;;;41.74;13.61
55066;BME280;40964;42.114;24.220;2022-07-23T12:17:47;97722.56;;;41.96;15.29
55066;BME280;40964;42.114;24.220;2022-07-23T12:20:16;97718.09;;;42.02;13.86
55066;BME280;40964;42.114;24.220;2022-07-23T12:22:47;97718.16;;;42.18;17.22
55066;BME280;40964;42.114;24.220;2022-07-23T12:25:19;97717.41;;;42.50;16.18
55066;BME280;40964;42.114;24.220;2022-07-23T12:27:45;97713.38;;;42.71;14.68
55066;BME280;40964;42.114;24.220;2022-07-23T12:32:46;97702.28;;;42.39;13.19
55066;BME280;40964;42.114;24.220;2022-07-23T12:35:13;97700.97;;;42.27;15.96
55066;BME280;40964;42.114;24.220;2022-07-23T12:37:43;97693.03;;;42.45;14.11
55066;BME280;40964;42.114;24.220;2022-07-23T12:40:23;97696.97;;;42.64;13.40
55066;BME280;40964;42.114;24.220;2022-07-23T12:42:52;97687.34;;;42.53;12.92
55066;BME280;40964;42.114;24.220;2022-07-23T12:45:18;97679.41;;;42.71;15.17
55066;BME280;40964;42.114;24.220;2022-07-23T12:48:03;97688.84;;;42.73;14.70
55066;BME280;40964;42.114;24.220;2022-07-23T12:50:32;97680.69;;;42.50;12.89
55066;BME280;40964;42.114;24.220;2022-07-23T12:53:07;97668.06;;;42.33;14.31
55066;BME280;40964;42.114;24.220;2022-07-23T12:55:33;97671.72;;;42.62;15.45
55066;BME280;40964;42.114;24.220;2022-07-23T12:58:17;97669.19;;;42.84;14.77
55066;BME280;40964;42.114;24.220;2022-07-23T13:01:01;97661.41;;;42.95;14.91
55066;BME280;40964;42.114;24.220;2022-07-23T13:03:37;97664.94;;;42.96;13.68
55066;BME280;40964;42.114;24.220;2022-07-23T13:06:05;97665.47;;;42.91;13.91
55066;BME280;40964;42.114;24.220;2022-07-23T13:08:33;97662.53;;;42.98;15.67
55066;BME280;40964;42.114;24.220;2022-07-23T13:11:00;97660.72;;;43.20;14.90
55066;BME280;40964;42.114;24.220;2022-07-23T13:13:28;97659.00;;;42.97;14.12
55066;BME280;40964;42.114;24.220;2022-07-23T13:15:54;97665.50;;;43.20;13.15
55066;BME280;40964;42.114;24.220;2022-07-23T13:18:21;97659.25;;;43.32;13.70
55066;BME280;40964;42.114;24.220;2022-07-23T13:20:47;97649.13;;;43.25;14.55
55066;BME280;40964;42.114;24.220;2022-07-23T13:23:14;97647.44;;;43.15;14.76
55066;BME280;40964;42.114;24.220;2022-07-23T13:25:40;97645.75;;;43.05;14.67
55066;BME280;40964;42.114;24.220;2022-07-23T13:28:07;97653.84;;;43.12;13.56
55066;BME280;40964;42.114;24.220;2022-07-23T13:30:33;97651.50;;;43.11;13.83
55066;BME280;40964;42.114;24.220;2022-07-23T13:32:59;97643.16;;;42.98;14.00